sensor_id;sensor_type;location;lat;lon;timestamp;P1;durP1;ratioP1;P2;durP2;ratioP2
72273;SDS011;60208;48.692;8.948;2023-06-22T00:01:47;10.82;;;8.45;;
72273;SDS011;60208;48.692;8.948;2023-06-22T00:04:12;9.60;;;8.52;;
72273;SDS011;60208;48.692;8.948;2023-06-22T00:06:37;11.43;;;9.10;;
72273;SDS011;60208;48.692;8.948;2023-06-22T00:09:03;12.27;;;8.45;;
72273;SDS011;60208;48.692;8.948;2023-06-22T00:11:28;10.88;;;9.05;;
72273;SDS011;60208;48.692;8.948;2023-06-22T00:14:46;12.57;;;9.20;;
72273;SDS011;60208;48.692;8.948;2023-06-22T00:18:06;12.18;;;8.73;;
72273;SDS011;60208;48.692;8.948;2023-06-22T00:21:25;12.38;;;9.07;;
72273;SDS011;60208;48.692;8.948;2023-06-22T00:24:53;11.48;;;8.85;;
72273;SDS011;60208;48.692;8.948;2023-06-22T00:28:11;12.43;;;8.70;;
72273;SDS011;60208;48.692;8.948;2023-06-22T00:30:37;9.48;;;8.40;;
72273;SDS011;60208;48.692;8.948;2023-06-22T00:33:02;11.93;;;9.00;;
72273;SDS011;60208;48.692;8.948;2023-06-22T00:35:28;10.93;;;9.15;;
72273;SDS011;60208;48.692;8.948;2023-06-22T00:37:56;12.15;;;8.43;;
72273;SDS011;60208;48.692;8.948;2023-06-22T00:40:31;13.30;;;9.38;;
72273;SDS011;60208;48.692;8.948;2023-06-22T00:42:57;11.13;;;8.93;;
72273;SDS011;60208;48.692;8.948;2023-06-22T00:45:23;9.18;;;8.18;;
72273;SDS011;60208;48.692;8.948;2023-06-22T00:47:53;9.30;;;7.97;;
72273;SDS011;60208;48.692;8.948;2023-06-22T00:50:22;12.20;;;9.40;;
72273;SDS011;60208;48.692;8.948;2023-06-22T00:52:52;13.02;;;8.77;;
72273;SDS011;60208;48.692;8.948;2023-06-22T00:55:19;13.15;;;8.98;;
72273;SDS011;60208;48.692;8.948;2023-06-22T00:57:46;11.40;;;8.95;;
72273;SDS011;60208;48.692;8.948;2023-06-22T01:00:12;12.13;;;8.77;;
72273;SDS011;60208;48.692;8.948;2023-06-22T01:02:38;11.75;;;8.77;;
72273;SDS011;60208;48.692;8.948;2023-06-22T01:05:04;11.02;;;9.02;;
72273;SDS011;60208;48.692;8.948;2023-06-22T01:07:33;11.98;;;9.43;;
72273;SDS011;60208;48.692;8.948;2023-06-22T01:13:04;13.68;;;9.38;;
72273;SDS011;60208;48.692;8.948;2023-06-22T01:19:01;12.95;;;9.30;;
72273;SDS011;60208;48.692;8.948;2023-06-22T01:22:23;10.88;;;9.13;;
72273;SDS011;60208;48.692;8.948;2023-06-22T01:29:57;13.55;;;10.13;;
72273;SDS011;60208;48.692;8.948;2023-06-22T01:32:35;10.88;;;9.07;;
72273;SDS011;60208;48.692;8.948;2023-06-22T01:35:03;12.40;;;9.13;;
72273;SDS011;60208;48.692;8.948;2023-06-22T01:37:30;14.65;;;9.60;;
72273;SDS011;60208;48.692;8.948;2023-06-22T01:39:57;11.32;;;9.50;;
72273;SDS011;60208;48.692;8.948;2023-06-22T01:42:26;13.15;;;9.48;;
72273;SDS011;60208;48.692;8.948;2023-06-22T01:44:52;13.55;;;10.02;;
72273;SDS011;60208;48.692;8.948;2023-06-22T01:47:18;11.02;;;9.20;;
72273;SDS011;60208;48.692;8.948;2023-06-22T01:49:45;12.68;;;9.15;;
72273;SDS011;60208;48.692;8.948;2023-06-22T01:52:12;12.48;;;9.75;;
72273;SDS011;60208;48.692;8.948;2023-06-22T01:54:39;11.73;;;9.20;;
72273;SDS011;60208;48.692;8.948;2023-06-22T01:57:05;12.35;;;9.48;;
72273;SDS011;60208;48.692;8.948;2023-06-22T02:02:06;10.68;;;9.07;;
72273;SDS011;60208;48.692;8.948;2023-06-22T02:04:38;12.80;;;9.07;;
72273;SDS011;60208;48.692;8.948;2023-06-22T02:07:11;12.52;;;9.63;;
72273;SDS011;60208;48.692;8.948;2023-06-22T02:09:38;12.35;;;9.30;;
72273;SDS011;60208;48.692;8.948;2023-06-22T02:12:03;13.68;;;9.50;;
72273;SDS011;60208;48.692;8.948;2023-06-22T02:14:30;14.55;;;9.35;;
72273;SDS011;60208;48.692;8.948;2023-06-22T02:16:55;12.30;;;9.57;;
72273;SDS011;60208;48.692;8.948;2023-06-22T02:19:24;10.32;;;9.25;;
72273;SDS011;60208;48.692;8.948;2023-06-22T02:21:49;11.80;;;9.32;;
72273;SDS011;60208;48.692;8.948;2023-06-22T02:24:15;11.63;;;9.27;;
72273;SDS011;60208;48.692;8.948;2023-06-22T02:26:40;11.93;;;9.70;;
72273;SDS011;60208;48.692;8.948;2023-06-22T02:29:07;18.42;;;10.13;;
72273;SDS011;60208;48.692;8.948;2023-06-22T02:31:33;14.50;;;9.77;;
72273;SDS011;60208;48.692;8.948;2023-06-22T02:33:58;13.60;;;10.65;;
72273;SDS011;60208;48.692;8.948;2023-06-22T02:36:24;14.98;;;10.90;;
72273;SDS011;60208;48.692;8.948;2023-06-22T02:38:51;14.77;;;10.27;;
72273;SDS011;60208;48.692;8.948;2023-06-22T02:41:17;13.60;;;10.15;;
72273;SDS011;60208;48.692;8.948;2023-06-22T02:43:46;17.75;;;10.32;;
72273;SDS011;60208;48.692;8.948;2023-06-22T02:46:12;14.88;;;10.77;;
72273;SDS011;60208;48.692;8.948;2023-06-22T02:48:38;13.93;;;10.45;;
72273;SDS011;60208;48.692;8.948;2023-06-22T02:51:06;17.58;;;10.82;;
72273;SDS011;60208;48.692;8.948;2023-06-22T02:53:32;17.08;;;10.80;;
72273;SDS011;60208;48.692;8.948;2023-06-22T02:55:57;15.32;;;10.50;;
72273;SDS011;60208;48.692;8.948;2023-06-22T02:58:23;16.08;;;10.45;;
72273;SDS011;60208;48.692;8.948;2023-06-22T03:00:49;15.93;;;11.02;;
72273;SDS011;60208;48.692;8.948;2023-06-22T03:03:18;14.70;;;9.95;;
72273;SDS011;60208;48.692;8.948;2023-06-22T03:05:46;16.05;;;10.30;;
72273;SDS011;60208;48.692;8.948;2023-06-22T03:08:11;15.20;;;9.82;;
72273;SDS011;60208;48.692;8.948;2023-06-22T03:10:36;15.10;;;10.05;;
72273;SDS011;60208;48.692;8.948;2023-06-22T03:13:02;14.65;;;10.63;;
72273;SDS011;60208;48.692;8.948;2023-06-22T03:15:27;12.30;;;9.45;;
72273;SDS011;60208;48.692;8.948;2023-06-22T03:17:54;14.18;;;9.52;;
72273;SDS011;60208;48.692;8.948;2023-06-22T03:20:20;12.07;;;9.73;;
72273;SDS011;60208;48.692;8.948;2023-06-22T03:22:45;12.43;;;9.20;;
72273;SDS011;60208;48.692;8.948;2023-06-22T03:25:11;18.08;;;10.50;;
72273;SDS011;60208;48.692;8.948;2023-06-22T03:27:38;14.15;;;9.70;;
72273;SDS011;60208;48.692;8.948;2023-06-22T03:30:04;12.15;;;9.90;;
72273;SDS011;60208;48.692;8.948;2023-06-22T03:32:32;13.35;;;10.00;;
72273;SDS011;60208;48.692;8.948;2023-06-22T03:34:57;13.43;;;9.55;;
72273;SDS011;60208;48.692;8.948;2023-06-22T03:37:24;13.15;;;10.05;;
72273;SDS011;60208;48.692;8.948;2023-06-22T03:39:50;15.80;;;10.23;;
72273;SDS011;60208;48.692;8.948;2023-06-22T03:42:16;18.77;;;11.40;;
72273;SDS011;60208;48.692;8.948;2023-06-22T03:44:41;13.25;;;11.70;;
72273;SDS011;60208;48.692;8.948;2023-06-22T03:47:07;18.67;;;10.50;;
72273;SDS011;60208;48.692;8.948;2023-06-22T03:49:33;13.80;;;9.95;;
72273;SDS011;60208;48.692;8.948;2023-06-22T03:51:59;13.60;;;9.82;;
72273;SDS011;60208;48.692;8.948;2023-06-22T03:54:25;14.38;;;10.40;;
72273;SDS011;60208;48.692;8.948;2023-06-22T03:56:51;15.73;;;11.18;;
72273;SDS011;60208;48.692;8.948;2023-06-22T03:59:17;17.73;;;11.02;;
72273;SDS011;60208;48.692;8.948;2023-06-22T04:01:42;13.98;;;10.60;;
72273;SDS011;60208;48.692;8.948;2023-06-22T04:04:08;14.55;;;10.98;;
72273;SDS011;60208;48.692;8.948;2023-06-22T04:06:33;12.85;;;10.18;;
72273;SDS011;60208;48.692;8.948;2023-06-22T04:08:59;12.48;;;10.35;;
72273;SDS011;60208;48.692;8.948;2023-06-22T04:11:25;15.48;;;11.90;;
72273;SDS011;60208;48.692;8.948;2023-06-22T04:13:51;13.75;;;10.88;;
72273;SDS011;60208;48.692;8.948;2023-06-22T04:16:17;14.63;;;10.90;;
72273;SDS011;60208;48.692;8.948;2023-06-22T04:18:42;14.52;;;11.30;;
72273;SDS011;60208;48.692;8.948;2023-06-22T04:21:08;18.20;;;11.13;;
72273;SDS011;60208;48.692;8.948;2023-06-22T04:23:33;18.20;;;11.10;;
72273;SDS011;60208;48.692;8.948;2023-06-22T04:25:58;18.98;;;11.00;;
72273;SDS011;60208;48.692;8.948;2023-06-22T04:28:27;14.95;;;10.45;;
72273;SDS011;60208;48.692;8.948;2023-06-22T04:30:52;12.50;;;9.55;;
72273;SDS011;60208;48.692;8.948;2023-06-22T04:33:18;13.32;;;11.02;;
72273;SDS011;60208;48.692;8.948;2023-06-22T04:35:46;17.20;;;11.52;;
72273;SDS011;60208;48.692;8.948;2023-06-22T04:38:12;15.70;;;11.55;;
72273;SDS011;60208;48.692;8.948;2023-06-22T04:40:38;16.65;;;11.32;;
72273;SDS011;60208;48.692;8.948;2023-06-22T04:43:04;16.17;;;11.07;;
72273;SDS011;60208;48.692;8.948;2023-06-22T04:45:31;15.25;;;10.93;;
72273;SDS011;60208;48.692;8.948;2023-06-22T04:47:57;16.27;;;10.85;;
72273;SDS011;60208;48.692;8.948;2023-06-22T04:50:23;18.50;;;11.63;;
72273;SDS011;60208;48.692;8.948;2023-06-22T04:52:49;17.98;;;11.63;;
72273;SDS011;60208;48.692;8.948;2023-06-22T04:55:15;17.13;;;11.45;;
72273;SDS011;60208;48.692;8.948;2023-06-22T04:57:47;14.18;;;10.18;;
72273;SDS011;60208;48.692;8.948;2023-06-22T05:00:23;13.88;;;11.50;;
72273;SDS011;60208;48.692;8.948;2023-06-22T05:02:48;14.52;;;11.45;;
72273;SDS011;60208;48.692;8.948;2023-06-22T05:05:14;18.70;;;11.65;;
72273;SDS011;60208;48.692;8.948;2023-06-22T05:07:44;18.23;;;11.07;;
72273;SDS011;60208;48.692;8.948;2023-06-22T05:10:17;12.00;;;10.23;;
72273;SDS011;60208;48.692;8.948;2023-06-22T05:12:44;15.13;;;10.75;;
72273;SDS011;60208;48.692;8.948;2023-06-22T05:15:09;15.13;;;11.32;;
72273;SDS011;60208;48.692;8.948;2023-06-22T05:17:35;16.75;;;12.88;;
72273;SDS011;60208;48.692;8.948;2023-06-22T05:20:01;17.10;;;11.18;;
72273;SDS011;60208;48.692;8.948;2023-06-22T05:22:31;15.27;;;10.82;;
72273;SDS011;60208;48.692;8.948;2023-06-22T05:24:56;12.57;;;10.13;;
72273;SDS011;60208;48.692;8.948;2023-06-22T05:27:22;16.83;;;10.68;;
72273;SDS011;60208;48.692;8.948;2023-06-22T05:29:47;17.38;;;10.57;;
72273;SDS011;60208;48.692;8.948;2023-06-22T05:32:13;13.77;;;9.90;;
72273;SDS011;60208;48.692;8.948;2023-06-22T05:34:38;12.93;;;9.30;;
72273;SDS011;60208;48.692;8.948;2023-06-22T05:37:03;16.27;;;10.38;;
72273;SDS011;60208;48.692;8.948;2023-06-22T05:39:29;11.70;;;9.80;;
72273;SDS011;60208;48.692;8.948;2023-06-22T05:41:55;12.43;;;9.00;;
72273;SDS011;60208;48.692;8.948;2023-06-22T05:44:20;13.52;;;10.00;;
72273;SDS011;60208;48.692;8.948;2023-06-22T05:46:45;12.95;;;8.75;;
72273;SDS011;60208;48.692;8.948;2023-06-22T05:49:14;12.48;;;9.02;;
72273;SDS011;60208;48.692;8.948;2023-06-22T05:51:41;14.05;;;7.68;;
72273;SDS011;60208;48.692;8.948;2023-06-22T05:54:06;10.35;;;7.25;;
72273;SDS011;60208;48.692;8.948;2023-06-22T05:56:33;14.45;;;6.75;;
72273;SDS011;60208;48.692;8.948;2023-06-22T05:58:59;11.55;;;6.38;;
72273;SDS011;60208;48.692;8.948;2023-06-22T06:01:24;9.95;;;6.82;;
72273;SDS011;60208;48.692;8.948;2023-06-22T06:03:51;9.27;;;6.20;;
72273;SDS011;60208;48.692;8.948;2023-06-22T06:06:17;16.38;;;6.03;;
72273;SDS011;60208;48.692;8.948;2023-06-22T06:08:43;9.18;;;6.05;;
72273;SDS011;60208;48.692;8.948;2023-06-22T06:11:08;11.18;;;6.57;;
72273;SDS011;60208;48.692;8.948;2023-06-22T06:13:33;7.65;;;5.72;;
72273;SDS011;60208;48.692;8.948;2023-06-22T06:15:59;7.68;;;5.57;;
72273;SDS011;60208;48.692;8.948;2023-06-22T06:18:24;9.38;;;5.63;;
72273;SDS011;60208;48.692;8.948;2023-06-22T06:20:50;8.27;;;6.10;;
72273;SDS011;60208;48.692;8.948;2023-06-22T06:23:16;11.32;;;5.70;;
72273;SDS011;60208;48.692;8.948;2023-06-22T06:25:41;8.77;;;6.60;;
72273;SDS011;60208;48.692;8.948;2023-06-22T06:28:07;9.80;;;5.65;;
72273;SDS011;60208;48.692;8.948;2023-06-22T06:30:32;7.97;;;5.22;;
72273;SDS011;60208;48.692;8.948;2023-06-22T06:32:58;8.73;;;5.38;;
72273;SDS011;60208;48.692;8.948;2023-06-22T06:35:23;12.57;;;5.57;;
72273;SDS011;60208;48.692;8.948;2023-06-22T06:37:49;10.00;;;5.00;;
72273;SDS011;60208;48.692;8.948;2023-06-22T06:40:16;9.82;;;5.40;;
72273;SDS011;60208;48.692;8.948;2023-06-22T06:42:43;11.18;;;5.18;;
72273;SDS011;60208;48.692;8.948;2023-06-22T06:45:10;6.85;;;4.63;;
72273;SDS011;60208;48.692;8.948;2023-06-22T06:47:40;9.32;;;5.20;;
72273;SDS011;60208;48.692;8.948;2023-06-22T06:50:06;9.68;;;5.22;;
72273;SDS011;60208;48.692;8.948;2023-06-22T06:52:32;7.68;;;5.13;;
72273;SDS011;60208;48.692;8.948;2023-06-22T06:54:58;9.25;;;4.95;;
72273;SDS011;60208;48.692;8.948;2023-06-22T06:57:23;8.57;;;4.75;;
72273;SDS011;60208;48.692;8.948;2023-06-22T06:59:53;13.50;;;4.50;;
72273;SDS011;60208;48.692;8.948;2023-06-22T07:02:20;9.98;;;4.80;;
72273;SDS011;60208;48.692;8.948;2023-06-22T07:04:46;9.18;;;4.72;;
72273;SDS011;60208;48.692;8.948;2023-06-22T07:07:11;8.90;;;5.00;;
72273;SDS011;60208;48.692;8.948;2023-06-22T07:09:37;7.38;;;4.60;;
72273;SDS011;60208;48.692;8.948;2023-06-22T07:12:02;9.65;;;4.68;;
72273;SDS011;60208;48.692;8.948;2023-06-22T07:14:28;8.82;;;4.45;;
72273;SDS011;60208;48.692;8.948;2023-06-22T07:16:53;8.85;;;4.97;;
72273;SDS011;60208;48.692;8.948;2023-06-22T07:19:25;8.68;;;4.70;;
72273;SDS011;60208;48.692;8.948;2023-06-22T07:21:52;8.85;;;4.65;;
72273;SDS011;60208;48.692;8.948;2023-06-22T07:24:20;9.82;;;4.63;;
72273;SDS011;60208;48.692;8.948;2023-06-22T07:26:47;11.32;;;5.20;;
72273;SDS011;60208;48.692;8.948;2023-06-22T07:29:13;9.98;;;4.82;;
72273;SDS011;60208;48.692;8.948;2023-06-22T07:31:39;8.70;;;5.03;;
72273;SDS011;60208;48.692;8.948;2023-06-22T07:34:06;9.68;;;4.65;;
72273;SDS011;60208;48.692;8.948;2023-06-22T07:36:32;8.20;;;4.68;;
72273;SDS011;60208;48.692;8.948;2023-06-22T07:38:57;12.10;;;4.15;;
72273;SDS011;60208;48.692;8.948;2023-06-22T07:41:22;9.77;;;4.78;;
72273;SDS011;60208;48.692;8.948;2023-06-22T07:43:48;8.52;;;4.35;;
72273;SDS011;60208;48.692;8.948;2023-06-22T07:46:14;9.13;;;4.60;;
72273;SDS011;60208;48.692;8.948;2023-06-22T07:48:40;8.75;;;4.45;;
72273;SDS011;60208;48.692;8.948;2023-06-22T07:51:07;8.68;;;5.30;;
72273;SDS011;60208;48.692;8.948;2023-06-22T07:53:32;10.50;;;4.60;;
72273;SDS011;60208;48.692;8.948;2023-06-22T07:55:58;9.30;;;4.90;;
72273;SDS011;60208;48.692;8.948;2023-06-22T07:58:23;7.60;;;5.00;;
72273;SDS011;60208;48.692;8.948;2023-06-22T08:00:49;9.90;;;5.47;;
72273;SDS011;60208;48.692;8.948;2023-06-22T08:03:14;7.88;;;4.95;;
72273;SDS011;60208;48.692;8.948;2023-06-22T08:05:40;10.10;;;4.82;;
72273;SDS011;60208;48.692;8.948;2023-06-22T08:08:06;8.30;;;4.85;;
72273;SDS011;60208;48.692;8.948;2023-06-22T08:10:31;11.60;;;6.00;;
72273;SDS011;60208;48.692;8.948;2023-06-22T08:12:57;12.63;;;5.30;;
72273;SDS011;60208;48.692;8.948;2023-06-22T08:15:22;10.68;;;5.10;;
72273;SDS011;60208;48.692;8.948;2023-06-22T08:17:48;10.13;;;5.43;;
72273;SDS011;60208;48.692;8.948;2023-06-22T08:20:14;8.90;;;5.75;;
72273;SDS011;60208;48.692;8.948;2023-06-22T08:22:40;8.30;;;5.35;;
72273;SDS011;60208;48.692;8.948;2023-06-22T08:25:07;11.20;;;5.40;;
72273;SDS011;60208;48.692;8.948;2023-06-22T08:27:32;11.98;;;5.00;;
72273;SDS011;60208;48.692;8.948;2023-06-22T08:29:58;8.60;;;5.10;;
72273;SDS011;60208;48.692;8.948;2023-06-22T08:32:25;10.60;;;5.20;;
72273;SDS011;60208;48.692;8.948;2023-06-22T08:34:55;11.90;;;5.30;;
72273;SDS011;60208;48.692;8.948;2023-06-22T08:37:21;11.65;;;5.10;;
72273;SDS011;60208;48.692;8.948;2023-06-22T08:39:56;11.60;;;5.30;;
72273;SDS011;60208;48.692;8.948;2023-06-22T08:42:22;12.82;;;5.55;;
72273;SDS011;60208;48.692;8.948;2023-06-22T08:44:49;12.88;;;5.20;;
72273;SDS011;60208;48.692;8.948;2023-06-22T08:47:15;7.22;;;5.28;;
72273;SDS011;60208;48.692;8.948;2023-06-22T08:49:40;12.15;;;5.63;;
72273;SDS011;60208;48.692;8.948;2023-06-22T08:52:06;9.70;;;5.13;;
72273;SDS011;60208;48.692;8.948;2023-06-22T08:54:32;10.73;;;5.57;;
72273;SDS011;60208;48.692;8.948;2023-06-22T08:56:59;11.50;;;4.97;;
72273;SDS011;60208;48.692;8.948;2023-06-22T08:59:25;10.50;;;5.10;;
72273;SDS011;60208;48.692;8.948;2023-06-22T09:01:50;11.40;;;5.43;;
72273;SDS011;60208;48.692;8.948;2023-06-22T09:04:16;10.88;;;5.18;;
72273;SDS011;60208;48.692;8.948;2023-06-22T09:06:41;12.95;;;5.38;;
72273;SDS011;60208;48.692;8.948;2023-06-22T09:09:10;9.88;;;5.35;;
72273;SDS011;60208;48.692;8.948;2023-06-22T09:11:37;10.68;;;5.32;;
72273;SDS011;60208;48.692;8.948;2023-06-22T09:14:02;12.57;;;5.40;;
72273;SDS011;60208;48.692;8.948;2023-06-22T09:16:29;11.52;;;5.40;;
72273;SDS011;60208;48.692;8.948;2023-06-22T09:18:54;10.98;;;5.40;;
72273;SDS011;60208;48.692;8.948;2023-06-22T09:21:19;13.80;;;4.97;;
72273;SDS011;60208;48.692;8.948;2023-06-22T09:23:45;12.52;;;5.75;;
72273;SDS011;60208;48.692;8.948;2023-06-22T09:26:15;9.68;;;5.28;;
72273;SDS011;60208;48.692;8.948;2023-06-22T09:28:41;11.75;;;5.40;;
72273;SDS011;60208;48.692;8.948;2023-06-22T09:31:07;11.15;;;5.55;;
72273;SDS011;60208;48.692;8.948;2023-06-22T09:33:32;10.65;;;5.47;;
72273;SDS011;60208;48.692;8.948;2023-06-22T09:35:58;11.27;;;5.80;;
72273;SDS011;60208;48.692;8.948;2023-06-22T09:38:23;14.93;;;5.30;;
72273;SDS011;60208;48.692;8.948;2023-06-22T09:40:48;11.05;;;6.03;;
72273;SDS011;60208;48.692;8.948;2023-06-22T09:43:14;11.70;;;5.53;;
72273;SDS011;60208;48.692;8.948;2023-06-22T09:45:39;9.88;;;5.15;;
72273;SDS011;60208;48.692;8.948;2023-06-22T09:48:05;12.20;;;5.18;;
72273;SDS011;60208;48.692;8.948;2023-06-22T09:50:30;13.55;;;5.68;;
72273;SDS011;60208;48.692;8.948;2023-06-22T09:52:56;11.88;;;5.28;;
72273;SDS011;60208;48.692;8.948;2023-06-22T09:55:21;12.38;;;5.22;;
72273;SDS011;60208;48.692;8.948;2023-06-22T09:57:47;12.15;;;5.70;;
72273;SDS011;60208;48.692;8.948;2023-06-22T10:00:13;12.52;;;5.32;;
72273;SDS011;60208;48.692;8.948;2023-06-22T10:02:40;11.82;;;5.53;;
72273;SDS011;60208;48.692;8.948;2023-06-22T10:05:06;11.85;;;5.03;;
72273;SDS011;60208;48.692;8.948;2023-06-22T10:07:32;9.98;;;5.10;;
72273;SDS011;60208;48.692;8.948;2023-06-22T10:09:59;12.63;;;5.72;;
72273;SDS011;60208;48.692;8.948;2023-06-22T10:12:26;12.30;;;5.18;;
72273;SDS011;60208;48.692;8.948;2023-06-22T10:14:52;12.60;;;5.10;;
72273;SDS011;60208;48.692;8.948;2023-06-22T10:17:18;12.65;;;5.40;;
72273;SDS011;60208;48.692;8.948;2023-06-22T10:19:43;11.98;;;5.50;;
72273;SDS011;60208;48.692;8.948;2023-06-22T10:22:08;8.35;;;4.78;;
72273;SDS011;60208;48.692;8.948;2023-06-22T10:24:34;15.13;;;5.38;;
72273;SDS011;60208;48.692;8.948;2023-06-22T10:26:59;9.95;;;5.18;;
72273;SDS011;60208;48.692;8.948;2023-06-22T10:29:24;10.50;;;4.93;;
72273;SDS011;60208;48.692;8.948;2023-06-22T10:31:50;9.82;;;4.90;;
72273;SDS011;60208;48.692;8.948;2023-06-22T10:34:15;11.20;;;5.03;;
72273;SDS011;60208;48.692;8.948;2023-06-22T10:36:41;16.50;;;5.55;;
72273;SDS011;60208;48.692;8.948;2023-06-22T10:39:06;12.63;;;5.28;;
72273;SDS011;60208;48.692;8.948;2023-06-22T10:41:32;13.00;;;5.57;;
72273;SDS011;60208;48.692;8.948;2023-06-22T10:43:57;16.48;;;5.72;;
72273;SDS011;60208;48.692;8.948;2023-06-22T10:46:25;10.60;;;4.93;;
72273;SDS011;60208;48.692;8.948;2023-06-22T10:48:51;10.65;;;4.90;;
72273;SDS011;60208;48.692;8.948;2023-06-22T10:51:19;11.23;;;5.40;;
72273;SDS011;60208;48.692;8.948;2023-06-22T10:53:44;12.13;;;5.40;;
72273;SDS011;60208;48.692;8.948;2023-06-22T10:56:09;8.60;;;5.05;;
72273;SDS011;60208;48.692;8.948;2023-06-22T10:58:35;14.52;;;5.60;;
72273;SDS011;60208;48.692;8.948;2023-06-22T11:01:00;14.32;;;5.45;;
72273;SDS011;60208;48.692;8.948;2023-06-22T11:03:27;10.32;;;5.13;;
72273;SDS011;60208;48.692;8.948;2023-06-22T11:05:53;12.25;;;4.97;;
72273;SDS011;60208;48.692;8.948;2023-06-22T11:08:18;12.43;;;5.17;;
72273;SDS011;60208;48.692;8.948;2023-06-22T11:10:43;9.18;;;4.68;;
72273;SDS011;60208;48.692;8.948;2023-06-22T11:13:09;10.57;;;5.05;;
72273;SDS011;60208;48.692;8.948;2023-06-22T11:15:35;12.48;;;5.30;;
72273;SDS011;60208;48.692;8.948;2023-06-22T11:18:01;13.38;;;5.05;;
72273;SDS011;60208;48.692;8.948;2023-06-22T11:20:26;11.90;;;4.45;;
72273;SDS011;60208;48.692;8.948;2023-06-22T11:22:52;11.25;;;5.05;;
72273;SDS011;60208;48.692;8.948;2023-06-22T11:25:17;9.57;;;4.57;;
72273;SDS011;60208;48.692;8.948;2023-06-22T11:27:43;11.05;;;4.93;;
72273;SDS011;60208;48.692;8.948;2023-06-22T11:30:08;12.13;;;4.80;;
72273;SDS011;60208;48.692;8.948;2023-06-22T11:32:34;12.52;;;5.30;;
72273;SDS011;60208;48.692;8.948;2023-06-22T11:34:59;17.67;;;5.75;;
72273;SDS011;60208;48.692;8.948;2023-06-22T11:37:25;16.23;;;5.53;;
72273;SDS011;60208;48.692;8.948;2023-06-22T11:39:51;11.73;;;5.30;;
72273;SDS011;60208;48.692;8.948;2023-06-22T11:42:16;9.60;;;5.15;;
72273;SDS011;60208;48.692;8.948;2023-06-22T11:44:42;12.00;;;5.88;;
72273;SDS011;60208;48.692;8.948;2023-06-22T11:47:08;10.00;;;5.40;;
72273;SDS011;60208;48.692;8.948;2023-06-22T11:49:34;14.43;;;5.78;;
72273;SDS011;60208;48.692;8.948;2023-06-22T11:51:59;11.85;;;5.47;;
72273;SDS011;60208;48.692;8.948;2023-06-22T11:54:25;14.00;;;5.65;;
72273;SDS011;60208;48.692;8.948;2023-06-22T11:56:50;17.25;;;5.88;;
72273;SDS011;60208;48.692;8.948;2023-06-22T11:59:15;12.48;;;5.40;;
72273;SDS011;60208;48.692;8.948;2023-06-22T12:01:41;12.35;;;5.20;;
72273;SDS011;60208;48.692;8.948;2023-06-22T12:04:06;13.50;;;5.43;;
72273;SDS011;60208;48.692;8.948;2023-06-22T12:06:32;15.90;;;5.80;;
72273;SDS011;60208;48.692;8.948;2023-06-22T12:08:58;12.35;;;5.25;;
72273;SDS011;60208;48.692;8.948;2023-06-22T12:11:23;13.70;;;6.00;;
72273;SDS011;60208;48.692;8.948;2023-06-22T12:13:49;12.63;;;5.72;;
72273;SDS011;60208;48.692;8.948;2023-06-22T12:16:14;13.77;;;5.80;;
72273;SDS011;60208;48.692;8.948;2023-06-22T12:18:40;12.73;;;5.60;;
72273;SDS011;60208;48.692;8.948;2023-06-22T12:21:05;15.23;;;5.60;;
72273;SDS011;60208;48.692;8.948;2023-06-22T12:23:30;13.05;;;5.30;;
72273;SDS011;60208;48.692;8.948;2023-06-22T12:25:56;11.00;;;5.70;;
72273;SDS011;60208;48.692;8.948;2023-06-22T12:28:22;13.35;;;5.68;;
72273;SDS011;60208;48.692;8.948;2023-06-22T12:30:48;17.85;;;6.55;;
72273;SDS011;60208;48.692;8.948;2023-06-22T12:33:14;13.27;;;5.88;;
72273;SDS011;60208;48.692;8.948;2023-06-22T12:35:39;16.45;;;6.32;;
72273;SDS011;60208;48.692;8.948;2023-06-22T12:38:04;13.45;;;6.05;;
72273;SDS011;60208;48.692;8.948;2023-06-22T12:40:32;11.23;;;5.60;;
72273;SDS011;60208;48.692;8.948;2023-06-22T12:42:58;13.35;;;5.70;;
72273;SDS011;60208;48.692;8.948;2023-06-22T12:45:23;12.95;;;6.47;;
72273;SDS011;60208;48.692;8.948;2023-06-22T12:47:49;13.48;;;6.15;;
72273;SDS011;60208;48.692;8.948;2023-06-22T12:50:15;14.43;;;6.18;;
72273;SDS011;60208;48.692;8.948;2023-06-22T12:52:41;11.68;;;6.35;;
72273;SDS011;60208;48.692;8.948;2023-06-22T12:55:06;12.90;;;6.32;;
72273;SDS011;60208;48.692;8.948;2023-06-22T12:57:32;12.23;;;5.72;;
72273;SDS011;60208;48.692;8.948;2023-06-22T12:59:57;16.13;;;6.68;;
72273;SDS011;60208;48.692;8.948;2023-06-22T13:02:25;13.07;;;5.90;;
72273;SDS011;60208;48.692;8.948;2023-06-22T13:04:50;10.55;;;5.38;;
72273;SDS011;60208;48.692;8.948;2023-06-22T13:07:16;14.43;;;5.10;;
72273;SDS011;60208;48.692;8.948;2023-06-22T13:09:41;10.18;;;4.85;;
72273;SDS011;60208;48.692;8.948;2023-06-22T13:12:07;12.05;;;5.32;;
72273;SDS011;60208;48.692;8.948;2023-06-22T13:14:32;12.23;;;5.18;;
72273;SDS011;60208;48.692;8.948;2023-06-22T13:16:58;15.85;;;5.50;;
72273;SDS011;60208;48.692;8.948;2023-06-22T13:19:23;11.30;;;5.43;;
72273;SDS011;60208;48.692;8.948;2023-06-22T13:21:49;13.60;;;5.00;;
72273;SDS011;60208;48.692;8.948;2023-06-22T13:24:15;13.93;;;5.25;;
72273;SDS011;60208;48.692;8.948;2023-06-22T13:26:41;12.20;;;5.10;;
72273;SDS011;60208;48.692;8.948;2023-06-22T13:29:06;15.50;;;5.70;;
72273;SDS011;60208;48.692;8.948;2023-06-22T13:31:32;13.35;;;5.43;;
72273;SDS011;60208;48.692;8.948;2023-06-22T13:33:57;14.32;;;5.45;;
72273;SDS011;60208;48.692;8.948;2023-06-22T13:36:23;11.55;;;5.45;;
72273;SDS011;60208;48.692;8.948;2023-06-22T13:38:48;12.63;;;5.45;;
72273;SDS011;60208;48.692;8.948;2023-06-22T13:41:14;16.88;;;6.15;;
72273;SDS011;60208;48.692;8.948;2023-06-22T13:43:39;19.55;;;5.13;;
72273;SDS011;60208;48.692;8.948;2023-06-22T13:46:05;10.48;;;5.05;;
72273;SDS011;60208;48.692;8.948;2023-06-22T13:48:30;12.65;;;5.20;;
72273;SDS011;60208;48.692;8.948;2023-06-22T13:50:55;16.58;;;5.47;;
72273;SDS011;60208;48.692;8.948;2023-06-22T13:53:24;17.90;;;5.40;;
72273;SDS011;60208;48.692;8.948;2023-06-22T13:55:50;9.90;;;5.25;;
72273;SDS011;60208;48.692;8.948;2023-06-22T13:58:15;17.40;;;5.80;;
72273;SDS011;60208;48.692;8.948;2023-06-22T14:00:41;13.13;;;5.63;;
72273;SDS011;60208;48.692;8.948;2023-06-22T14:03:06;15.43;;;5.28;;
72273;SDS011;60208;48.692;8.948;2023-06-22T14:05:31;17.40;;;5.10;;
72273;SDS011;60208;48.692;8.948;2023-06-22T14:08:03;17.58;;;5.65;;
72273;SDS011;60208;48.692;8.948;2023-06-22T14:10:28;11.00;;;5.30;;
72273;SDS011;60208;48.692;8.948;2023-06-22T14:12:54;10.98;;;4.72;;
72273;SDS011;60208;48.692;8.948;2023-06-22T14:15:19;14.45;;;4.75;;
72273;SDS011;60208;48.692;8.948;2023-06-22T14:17:44;12.55;;;4.07;;
72273;SDS011;60208;48.692;8.948;2023-06-22T14:20:10;13.40;;;3.70;;
72273;SDS011;60208;48.692;8.948;2023-06-22T14:22:35;13.20;;;3.45;;
72273;SDS011;60208;48.692;8.948;2023-06-22T14:25:01;17.98;;;3.78;;
72273;SDS011;60208;48.692;8.948;2023-06-22T14:27:27;13.73;;;3.03;;
72273;SDS011;60208;48.692;8.948;2023-06-22T14:29:52;13.90;;;3.60;;
72273;SDS011;60208;48.692;8.948;2023-06-22T14:32:18;12.07;;;3.10;;
72273;SDS011;60208;48.692;8.948;2023-06-22T14:34:43;12.43;;;3.10;;
72273;SDS011;60208;48.692;8.948;2023-06-22T14:37:09;12.88;;;3.20;;
72273;SDS011;60208;48.692;8.948;2023-06-22T14:39:40;15.05;;;3.65;;
72273;SDS011;60208;48.692;8.948;2023-06-22T14:42:05;13.05;;;3.10;;
72273;SDS011;60208;48.692;8.948;2023-06-22T14:44:31;12.95;;;3.20;;
72273;SDS011;60208;48.692;8.948;2023-06-22T15:07:29;8.15;;;3.05;;